Time;durP1;ratioP1;P1;durP2;ratioP2;P2;SDS_P1;SDS_P2;PMS_P1;PMS_P2;Temp;Humidity;BMP_temperature;BMP_pressure;BME280_temperature;BME280_humidity;BME280_pressure;Samples;Min_cycle;Max_cycle;Signal;HPM_P1;HPM_P2
2022/07/06 00:02:18;;;;;;;28.00;25.70;;;;;;;17.09;100.00;99023.44;105101;1274;61323;-76
2022/07/06 00:04:45;;;;;;;22.80;20.90;;;;;;;17.07;100.00;99020.20;105198;1271;61234;-76
2022/07/06 00:07:11;;;;;;;21.00;19.20;;;;;;;17.03;100.00;99018.02;105348;1271;61228;-76
2022/07/06 00:09:38;;;;;;;18.20;16.80;;;;;;;17.00;100.00;99015.59;105515;1271;61374;-76
2022/07/06 00:12:04;;;;;;;17.00;15.70;;;;;;;16.98;100.00;99016.55;105584;1271;61379;-77
2022/07/06 00:14:31;;;;;;;16.70;15.30;;;;;;;16.96;100.00;99014.73;106052;1271;61233;-75
2022/07/06 00:16:58;;;;;;;16.60;15.20;;;;;;;16.94;100.00;99014.23;105749;1271;74033;-75
2022/07/06 00:19:25;;;;;;;14.90;13.70;;;;;;;16.93;100.00;99011.30;107973;1271;68693;-75
2022/07/06 00:21:51;;;;;;;16.10;14.80;;;;;;;16.92;100.00;99012.98;108374;1271;73128;-76
2022/07/06 00:24:18;;;;;;;16.10;14.50;;;;;;;16.90;100.00;99014.20;108342;1271;60043;-75
2022/07/06 00:26:45;;;;;;;15.70;14.50;;;;;;;16.88;100.00;99008.86;107583;1271;61176;-76
2022/07/06 00:29:11;;;;;;;15.30;14.10;;;;;;;16.86;100.00;99010.27;106103;1271;75248;-75
2022/07/06 00:31:38;;;;;;;15.20;14.10;;;;;;;16.85;100.00;99004.80;105074;1271;61202;-77
2022/07/06 00:34:05;;;;;;;15.40;14.20;;;;;;;16.85;100.00;99008.91;104980;1271;73352;-79
2022/07/06 00:36:31;;;;;;;16.60;15.30;;;;;;;16.86;100.00;99010.98;104977;1271;61281;-77
2022/07/06 00:38:58;;;;;;;16.20;14.90;;;;;;;16.86;100.00;99007.91;104937;1271;61380;-75
2022/07/06 00:41:24;;;;;;;17.60;16.00;;;;;;;16.86;100.00;99008.45;104943;1271;61348;-76
2022/07/06 00:43:56;;;;;;;16.80;15.30;;;;;;;16.87;100.00;99013.98;104962;1271;61373;-75
2022/07/06 00:46:28;;;;;;;17.50;16.10;;;;;;;16.86;100.00;99012.21;104924;1271;71382;-75
2022/07/06 00:48:55;;;;;;;17.70;16.30;;;;;;;16.87;100.00;99017.34;104982;1271;61293;-76
2022/07/06 00:51:28;;;;;;;22.10;20.10;;;;;;;16.87;100.00;99009.98;104945;1271;61346;-75
2022/07/06 00:53:58;;;;;;;24.40;22.30;;;;;;;16.88;100.00;99014.21;104971;1271;75467;-75
2022/07/06 00:56:26;;;;;;;24.60;22.40;;;;;;;16.88;100.00;99011.67;104883;1271;69378;-76
2022/07/06 00:58:53;;;;;;;27.60;25.00;;;;;;;16.88;100.00;99012.98;104776;1271;72233;-74
2022/07/06 01:01:20;;;;;;;31.00;28.00;;;;;;;16.88;100.00;99019.02;104953;1271;61401;-77
2022/07/06 01:03:50;;;;;;;32.20;28.90;;;;;;;16.89;100.00;99017.88;104916;1271;61176;-76
2022/07/06 01:06:17;;;;;;;35.10;31.40;;;;;;;16.89;100.00;99019.63;104932;1271;76239;-75
2022/07/06 01:08:43;;;;;;;36.10;32.10;;;;;;;16.90;100.00;99022.81;104894;1271;70156;-76
2022/07/06 01:11:10;;;;;;;40.60;35.50;;;;;;;16.92;100.00;99025.70;104931;1271;61359;-76
2022/07/06 01:13:37;;;;;;;40.30;36.10;;;;;;;16.92;100.00;99028.93;104939;1271;61551;-76
2022/07/06 01:16:04;;;;;;;40.60;36.30;;;;;;;16.93;100.00;99027.06;104952;1271;61278;-76
2022/07/06 01:18:32;;;;;;;45.10;38.80;;;;;;;16.93;100.00;99028.83;104976;1271;74281;-76
2022/07/06 01:21:13;;;;;;;40.10;35.90;;;;;;;16.93;100.00;99027.21;104948;1271;69763;-76
2022/07/06 01:23:44;;;;;;;43.30;38.80;;;;;;;16.93;100.00;99025.27;104935;1271;74094;-76
2022/07/06 01:26:13;;;;;;;43.00;38.10;;;;;;;16.94;100.00;99022.70;104939;1271;61367;-76
2022/07/06 01:28:41;;;;;;;48.40;40.80;;;;;;;16.95;100.00;99024.55;104959;1271;61246;-76
2022/07/06 01:31:34;;;;;;;46.40;40.60;;;;;;;16.96;100.00;99022.28;104924;1271;76171;-76
2022/07/06 01:34:01;;;;;;;47.60;41.50;;;;;;;16.97;100.00;99018.05;104497;1280;69356;-77
2022/07/06 01:36:27;;;;;;;46.00;40.70;;;;;;;16.95;100.00;99020.73;104542;1280;73144;-75
2022/07/06 01:38:59;;;;;;;50.00;42.20;;;;;;;16.95;100.00;99020.25;104482;1280;61439;-76
2022/07/06 01:41:26;;;;;;;49.70;43.20;;;;;;;16.95;100.00;99024.03;104298;1281;61279;-75
2022/07/06 01:43:52;;;;;;;48.70;40.10;;;;;;;16.94;100.00;99023.58;104495;1280;76428;-75
2022/07/06 01:46:19;;;;;;;50.70;42.20;;;;;;;16.93;100.00;99027.43;104464;1280;70500;-76
2022/07/06 01:48:46;;;;;;;49.40;41.80;;;;;;;16.91;100.00;99022.25;104554;1280;74566;-75
2022/07/06 01:51:13;;;;;;;49.10;39.60;;;;;;;16.89;100.00;99027.54;104441;1280;61405;-74
2022/07/06 01:53:39;;;;;;;48.20;41.30;;;;;;;16.89;100.00;99030.50;104496;1279;61435;-75
2022/07/06 01:56:06;;;;;;;48.00;42.10;;;;;;;16.88;100.00;99034.47;104637;1280;61474;-75
2022/07/06 01:58:33;;;;;;;43.90;39.10;;;;;;;16.88;100.00;99030.50;104501;1280;69531;-76
2022/07/06 02:01:00;;;;;;;42.80;38.10;;;;;;;16.87;100.00;99028.83;104544;1280;73126;-76
2022/07/06 02:03:27;;;;;;;45.60;38.80;;;;;;;16.84;100.00;99031.77;104502;1280;61410;-76
2022/07/06 02:05:54;;;;;;;42.10;37.00;;;;;;;16.83;100.00;99036.61;104534;1280;61295;-76
2022/07/06 02:08:20;;;;;;;43.30;36.90;;;;;;;16.80;100.00;99033.64;104527;1280;61336;-76
2022/07/06 02:10:47;;;;;;;41.80;37.40;;;;;;;16.77;100.00;99029.38;104579;1271;61444;-75
2022/07/06 02:13:14;;;;;;;41.80;37.30;;;;;;;16.75;100.00;99028.30;104918;1271;61258;-75
2022/07/06 02:15:40;;;;;;;42.50;38.00;;;;;;;16.72;100.00;99023.40;104897;1271;61384;-76
2022/07/06 02:18:07;;;;;;;41.70;36.20;;;;;;;16.67;100.00;99021.81;104946;1271;61159;-76
2022/07/06 02:20:33;;;;;;;42.20;37.60;;;;;;;16.64;100.00;99021.05;104958;1271;76182;-76
2022/07/06 02:23:00;;;;;;;40.60;36.50;;;;;;;16.59;100.00;99018.81;104995;1271;69430;-76
2022/07/06 02:25:26;;;;;;;42.20;37.60;;;;;;;16.54;100.00;99013.34;104930;1271;61355;-75
2022/07/06 02:27:53;;;;;;;41.30;37.10;;;;;;;16.50;100.00;99011.27;104943;1271;61346;-76
2022/07/06 02:30:20;;;;;;;42.80;38.20;;;;;;;16.44;100.00;99012.11;104940;1271;61289;-76
2022/07/06 02:32:46;;;;;;;45.70;38.60;;;;;;;16.39;100.00;99015.61;104985;1271;75515;-76
2022/07/06 02:35:13;;;;;;;41.70;37.40;;;;;;;16.36;100.00;99016.80;104916;1271;69414;-76
2022/07/06 02:37:40;;;;;;;43.70;39.10;;;;;;;16.33;100.00;99023.35;104997;1271;72259;-76
2022/07/06 02:40:07;;;;;;;44.20;39.40;;;;;;;16.31;100.00;99029.44;104935;1271;61284;-76
2022/07/06 02:42:34;;;;;;;46.30;41.40;;;;;;;16.30;100.00;99029.74;104958;1271;62309;-75
2022/07/06 02:45:00;;;;;;;44.80;40.00;;;;;;;16.28;100.00;99028.50;104995;1271;74179;-76
2022/07/06 02:47:27;;;;;;;44.20;39.80;;;;;;;16.28;100.00;99026.52;104936;1271;69200;-76
2022/07/06 02:49:53;;;;;;;50.50;44.70;;;;;;;16.29;100.00;99029.86;104956;1271;61305;-75
2022/07/06 02:52:20;;;;;;;51.80;46.10;;;;;;;16.31;100.00;99025.70;104957;1271;61284;-76
2022/07/06 02:54:48;;;;;;;50.90;45.50;;;;;;;16.32;100.00;99025.08;104942;1271;61342;-76
2022/07/06 02:57:16;;;;;;;54.10;48.30;;;;;;;16.31;100.00;99024.60;105010;1271;75236;-75
2022/07/06 02:59:42;;;;;;;51.80;46.30;;;;;;;16.30;100.00;99030.09;105006;1271;69276;-75
2022/07/06 03:02:10;;;;;;;52.50;46.90;;;;;;;16.30;100.00;99034.20;104945;1271;74228;-75
2022/07/06 03:04:36;;;;;;;51.20;45.60;;;;;;;16.30;100.00;99034.59;104763;1273;61310;-76
2022/07/06 03:07:03;;;;;;;50.30;45.00;;;;;;;16.29;100.00;99040.05;104930;1271;61241;-76
2022/07/06 03:09:29;;;;;;;51.00;45.50;;;;;;;16.28;100.00;99039.60;104924;1271;75193;-77
2022/07/06 03:11:56;;;;;;;54.90;45.70;;;;;;;16.25;100.00;99039.11;104997;1271;61277;-74
2022/07/06 03:14:24;;;;;;;51.40;44.10;;;;;;;16.23;100.00;99044.31;104890;1273;61287;-75
2022/07/06 03:16:51;;;;;;;51.90;45.60;;;;;;;16.21;100.00;99047.53;104897;1271;61556;-76
2022/07/06 03:19:18;;;;;;;47.20;42.20;;;;;;;16.20;100.00;99047.95;104941;1271;61317;-75
2022/07/06 03:21:45;;;;;;;50.60;43.10;;;;;;;16.21;100.00;99048.80;104984;1271;75173;-76
2022/07/06 03:24:11;;;;;;;49.30;44.10;;;;;;;16.21;100.00;99045.23;104990;1271;68879;-76
2022/07/06 03:26:38;;;;;;;50.20;44.80;;;;;;;16.21;100.00;99049.83;105005;1271;74170;-77
2022/07/06 03:29:04;;;;;;;50.00;44.80;;;;;;;16.24;100.00;99048.14;104948;1271;61374;-76
2022/07/06 03:31:31;;;;;;;50.40;44.90;;;;;;;16.27;100.00;99054.17;104976;1271;61821;-76
2022/07/06 03:33:57;;;;;;;49.20;43.90;;;;;;;16.30;100.00;99052.34;104948;1271;76165;-75
2022/07/06 03:36:24;;;;;;;48.10;43.00;;;;;;;16.30;100.00;99057.14;104976;1271;68502;-74
2022/07/06 03:38:50;;;;;;;47.60;42.40;;;;;;;16.29;100.00;99061.38;104953;1271;61249;-76
2022/07/06 03:41:17;;;;;;;47.00;41.90;;;;;;;16.27;100.00;99067.50;104982;1271;61314;-75
2022/07/06 03:43:44;;;;;;;49.40;44.20;;;;;;;16.27;100.00;99066.25;105005;1271;61303;-74
2022/07/06 03:46:10;;;;;;;50.50;45.00;;;;;;;16.29;100.00;99064.02;104850;1271;61426;-74
2022/07/06 03:48:36;;;;;;;51.70;45.80;;;;;;;16.32;100.00;99063.77;104994;1271;61408;-75
2022/07/06 03:51:03;;;;;;;51.30;45.90;;;;;;;16.33;100.00;99065.31;104942;1271;61301;-74
2022/07/06 03:53:30;;;;;;;50.70;45.20;;;;;;;16.34;100.00;99064.13;104944;1271;61384;-75
2022/07/06 03:58:42;;;;;;;48.40;43.30;;;;;;;16.38;100.00;99076.70;104964;1271;75130;-75
2022/07/06 04:01:09;;;;;;;50.20;44.90;;;;;;;16.38;100.00;99079.77;104969;1271;69471;-73
2022/07/06 04:03:35;;;;;;;51.50;43.10;;;;;;;16.38;100.00;99078.27;104925;1271;61262;-75
2022/07/06 04:06:02;;;;;;;50.20;44.80;;;;;;;16.41;100.00;99078.78;104943;1271;61358;-76
2022/07/06 04:08:28;;;;;;;49.80;44.60;;;;;;;16.43;100.00;99071.55;104933;1271;61501;-76
2022/07/06 04:10:55;;;;;;;49.40;44.50;;;;;;;16.46;100.00;99074.32;104923;1271;61375;-76
2022/07/06 04:13:22;;;;;;;51.90;46.20;;;;;;;16.51;100.00;99077.64;104950;1271;61404;-76
2022/07/06 04:15:48;;;;;;;50.00;44.90;;;;;;;16.57;100.00;99076.41;104941;1271;73237;-76
2022/07/06 04:18:15;;;;;;;50.90;45.50;;;;;;;16.64;100.00;99079.89;104897;1271;61338;-75
2022/07/06 04:20:41;;;;;;;46.80;41.80;;;;;;;16.71;100.00;99079.47;104970;1271;61245;-75
2022/07/06 04:23:08;;;;;;;47.40;42.70;;;;;;;16.76;100.00;99081.02;104952;1271;75106;-75
2022/07/06 04:25:35;;;;;;;48.40;43.40;;;;;;;16.83;100.00;99082.84;104516;1271;457928;-75
2022/07/06 04:28:02;;;;;;;47.50;42.90;;;;;;;16.93;100.00;99083.80;104933;1271;73993;-75
2022/07/06 04:30:29;;;;;;;45.60;41.10;;;;;;;16.98;100.00;99085.11;104944;1271;61516;-76
2022/07/06 04:32:56;;;;;;;45.80;40.60;;;;;;;17.03;100.00;99092.36;105001;1271;61837;-75
2022/07/06 04:35:22;;;;;;;45.30;40.90;;;;;;;17.10;100.00;99099.79;104960;1271;76596;-75
2022/07/06 04:37:49;;;;;;;43.40;38.80;;;;;;;17.12;100.00;99098.02;104930;1271;67131;-76
2022/07/06 04:40:16;;;;;;;45.70;40.80;;;;;;;17.13;100.00;99104.71;104686;1272;72962;-76
2022/07/06 04:42:43;;;;;;;42.00;37.90;;;;;;;17.10;100.00;99108.89;104942;1271;61315;-76
2022/07/06 04:45:09;;;;;;;44.30;39.90;;;;;;;17.07;100.00;99109.59;104885;1271;61125;-76
2022/07/06 04:47:36;;;;;;;39.40;35.30;;;;;;;17.04;100.00;99112.54;104933;1271;76262;-78
2022/07/06 04:50:03;;;;;;;44.20;40.00;;;;;;;17.00;100.00;99120.62;104969;1271;62700;-76
2022/07/06 04:52:30;;;;;;;42.20;38.00;;;;;;;16.97;100.00;99121.33;104920;1271;73231;-76
2022/07/06 04:54:57;;;;;;;42.90;38.40;;;;;;;16.89;100.00;99123.38;104805;1271;61550;-76
2022/07/06 04:57:25;;;;;;;44.20;39.50;;;;;;;16.83;100.00;99124.11;104935;1271;61396;-75
2022/07/06 04:59:52;;;;;;;42.50;37.90;;;;;;;16.83;100.00;99127.31;104978;1271;76409;-75
2022/07/06 05:02:19;;;;;;;43.70;39.20;;;;;;;16.85;100.00;99127.23;105073;1271;69339;-75
2022/07/06 05:04:45;;;;;;;46.20;41.10;;;;;;;16.90;100.00;99125.27;104951;1271;73396;-75
2022/07/06 05:07:12;;;;;;;43.00;38.40;;;;;;;16.98;100.00;99121.91;104964;1271;61425;-75
2022/07/06 05:09:38;;;;;;;42.90;38.50;;;;;;;17.06;100.00;99121.33;104980;1271;61291;-76
2022/07/06 05:12:06;;;;;;;42.90;38.50;;;;;;;17.12;100.00;99121.50;104883;1271;61407;-76
2022/07/06 05:14:32;;;;;;;44.60;40.00;;;;;;;17.21;100.00;99121.59;105004;1271;69205;-76
2022/07/06 05:16:58;;;;;;;44.10;39.80;;;;;;;17.35;100.00;99125.84;104967;1271;61378;-76
2022/07/06 05:19:25;;;;;;;39.40;35.40;;;;;;;17.53;100.00;99125.02;104987;1271;61396;-76
2022/07/06 05:21:52;;;;;;;39.50;35.70;;;;;;;17.84;100.00;99127.85;104992;1271;62119;-75
2022/07/06 05:24:18;;;;;;;36.60;33.10;;;;;;;18.19;100.00;99124.06;105005;1271;76240;-76
2022/07/06 05:26:45;;;;;;;33.30;30.10;;;;;;;18.45;100.00;99120.09;105025;1271;61137;-78
2022/07/06 05:29:12;;;;;;;35.10;31.80;;;;;;;18.60;100.00;99122.05;104954;1271;74261;-77
2022/07/06 05:31:38;;;;;;;35.20;31.80;;;;;;;18.69;100.00;99123.98;104909;1271;61225;-76
2022/07/06 05:34:04;;;;;;;33.30;30.40;;;;;;;18.80;100.00;99120.77;105003;1271;61263;-76
2022/07/06 05:36:31;;;;;;;31.20;28.20;;;;;;;19.06;100.00;99120.55;104993;1271;61286;-76
2022/07/06 05:38:57;;;;;;;29.70;26.80;;;;;;;19.85;100.00;99118.48;105012;1270;61377;-76
2022/07/06 05:41:24;;;;;;;28.00;25.50;;;;;;;20.25;100.00;99117.33;105003;1271;61305;-76
2022/07/06 05:43:50;;;;;;;29.10;26.60;;;;;;;20.88;100.00;99118.67;105000;1271;61384;-76
2022/07/06 05:46:17;;;;;;;26.90;24.50;;;;;;;21.64;100.00;99116.86;105027;1271;61286;-77
2022/07/06 05:51:29;;;;;;;25.40;23.40;;;;;;;22.34;100.00;99112.20;104896;1271;70395;-76
2022/07/06 05:53:55;;;;;;;26.00;23.60;;;;;;;22.41;100.00;99108.94;105081;1271;61290;-76
2022/07/06 05:56:22;;;;;;;25.50;23.50;;;;;;;22.25;100.00;99112.93;105011;1271;61395;-76
2022/07/06 05:58:48;;;;;;;24.80;22.50;;;;;;;22.22;100.00;99116.03;105029;1271;61183;-76
2022/07/06 06:01:15;;;;;;;23.90;22.00;;;;;;;22.45;100.00;99117.67;104909;1271;61350;-76
2022/07/06 06:03:41;;;;;;;23.30;21.40;;;;;;;22.69;100.00;99115.48;105063;1271;61304;-76
2022/07/06 06:06:08;;;;;;;23.10;21.10;;;;;;;22.72;100.00;99116.90;105083;1271;72260;-75
2022/07/06 06:08:35;;;;;;;22.70;20.60;;;;;;;23.01;100.00;99117.55;105048;1271;62113;-76
2022/07/06 06:11:01;;;;;;;23.60;21.60;;;;;;;23.40;100.00;99116.80;105130;1271;61320;-76
2022/07/06 06:13:28;;;;;;;24.00;21.60;;;;;;;23.54;100.00;99118.81;105084;1271;61292;-77
2022/07/06 06:15:54;;;;;;;22.50;20.70;;;;;;;23.46;100.00;99123.16;105034;1271;61320;-76
2022/07/06 06:18:21;;;;;;;23.20;21.30;;;;;;;23.41;100.00;99124.59;105280;1271;61417;-76
2022/07/06 06:20:49;;;;;;;23.10;21.10;;;;;;;23.34;100.00;99124.27;105188;1271;61324;-76
2022/07/06 06:23:15;;;;;;;20.10;18.50;;;;;;;23.15;100.00;99136.85;106018;1271;62011;-76
2022/07/06 06:25:42;;;;;;;19.10;17.60;;;;;;;22.87;100.00;99138.23;105563;1271;76316;-76
2022/07/06 06:28:10;;;;;;;21.50;19.50;;;;;;;22.57;100.00;99144.08;105599;1271;70415;-76
2022/07/06 06:30:38;;;;;;;18.80;17.00;;;;;;;22.36;100.00;99155.91;105752;1271;73181;-77
2022/07/06 06:33:20;;;;;;;21.70;19.90;;;;;;;22.10;100.00;99157.05;106928;1271;60107;-76
2022/07/06 06:35:50;;;;;;;23.40;21.50;;;;;;;22.10;100.00;99160.02;106967;1271;61170;-78
2022/07/06 06:38:19;;;;;;;27.40;24.80;;;;;;;22.57;100.00;99154.52;106693;1270;75174;-76
2022/07/06 06:40:46;;;;;;;27.70;25.40;;;;;;;22.51;100.00;99157.70;106963;1271;69314;-77
2022/07/06 06:43:13;;;;;;;26.30;24.00;;;;;;;22.28;100.00;99157.83;107561;1271;73579;-78
2022/07/06 06:45:40;;;;;;;28.60;26.00;;;;;;;21.94;100.00;99164.34;105663;1274;61251;-78
2022/07/06 06:48:07;;;;;;;28.50;25.80;;;;;;;21.67;100.00;99163.92;104855;1274;62364;-75
2022/07/06 06:50:34;;;;;;;26.20;23.80;;;;;;;21.51;100.00;99164.36;104870;1274;76663;-78
2022/07/06 06:53:02;;;;;;;24.60;22.30;;;;;;;21.33;100.00;99167.48;104874;1274;61425;-77
2022/07/06 06:55:29;;;;;;;23.00;20.90;;;;;;;21.23;100.00;99167.27;104859;1274;73178;-78
2022/07/06 06:57:55;;;;;;;21.20;19.40;;;;;;;21.09;100.00;99169.85;104903;1274;61449;-78
2022/07/06 07:00:21;;;;;;;37.70;22.10;;;;;;;20.86;100.00;99170.33;104864;1274;61221;-77
2022/07/06 07:02:48;;;;;;;20.40;18.80;;;;;;;20.76;100.00;99179.30;104824;1274;61320;-77
2022/07/06 07:05:15;;;;;;;20.60;18.90;;;;;;;20.62;100.00;99182.64;104884;1274;70542;-77
2022/07/06 07:07:42;;;;;;;21.20;19.20;;;;;;;20.39;100.00;99179.95;104783;1274;74102;-76
2022/07/06 07:10:09;;;;;;;20.10;18.30;;;;;;;20.06;100.00;99177.77;104789;1274;61502;-74
2022/07/06 07:12:43;;;;;;;20.80;17.60;;;;;;;19.92;100.00;99176.89;104830;1274;61714;-76
2022/07/06 07:15:09;;;;;;;18.70;17.00;;;;;;;19.74;100.00;99177.51;104893;1274;75395;-77
2022/07/06 07:17:36;;;;;;;20.70;18.70;;;;;;;19.41;100.00;99178.61;104940;1271;67389;-77
2022/07/06 07:20:06;;;;;;;21.50;19.60;;;;;;;19.17;100.00;99181.55;105027;1271;61285;-77
2022/07/06 07:22:34;;;;;;;24.20;22.00;;;;;;;18.94;100.00;99184.95;104975;1271;61315;-77
2022/07/06 07:25:01;;;;;;;24.30;21.70;;;;;;;18.92;100.00;99189.12;104976;1271;61332;-77
2022/07/06 07:27:28;;;;;;;26.50;24.00;;;;;;;18.97;100.00;99190.39;104958;1271;61174;-77
2022/07/06 07:29:54;;;;;;;28.40;25.50;;;;;;;19.04;100.00;99196.89;104909;1271;69379;-77
2022/07/06 07:32:21;;;;;;;29.10;26.40;;;;;;;19.20;100.00;99199.62;104992;1271;73728;-76
2022/07/06 07:34:47;;;;;;;30.40;27.80;;;;;;;19.29;100.00;99199.63;104723;1272;61277;-78
2022/07/06 07:37:14;;;;;;;28.10;25.40;;;;;;;19.44;100.00;99203.55;104942;1273;61284;-78
2022/07/06 07:39:40;;;;;;;27.00;24.70;;;;;;;19.74;100.00;99203.74;104901;1273;61306;-77
2022/07/06 07:42:07;;;;;;;26.90;24.60;;;;;;;20.10;100.00;99206.07;104885;1273;61253;-76
2022/07/06 07:44:33;;;;;;;22.10;20.20;;;;;;;20.41;100.00;99208.64;104899;1273;61397;-78
2022/07/06 07:47:00;;;;;;;23.00;21.00;;;;;;;20.58;100.00;99212.16;104863;1273;61235;-76
2022/07/06 07:49:26;;;;;;;23.80;21.50;;;;;;;20.71;100.00;99214.77;104928;1273;61387;-76
2022/07/06 07:51:53;;;;;;;22.20;20.40;;;;;;;20.88;100.00;99214.67;104913;1273;61282;-76
2022/07/06 07:54:19;;;;;;;19.20;17.40;;;;;;;21.05;100.00;99215.84;104789;1273;69533;-78
2022/07/06 07:56:46;;;;;;;18.80;17.30;;;;;;;21.14;100.00;99213.63;104914;1273;62867;-76
2022/07/06 07:59:12;;;;;;;19.80;18.10;;;;;;;21.04;100.00;99218.21;104890;1273;61389;-76
2022/07/06 08:01:39;;;;;;;19.40;17.70;;;;;;;20.78;100.00;99222.17;104885;1273;61405;-76
2022/07/06 08:04:06;;;;;;;22.50;20.70;;;;;;;20.43;100.00;99223.95;104880;1273;74215;-78
2022/07/06 08:06:33;;;;;;;21.10;19.30;;;;;;;20.05;100.00;99227.09;104852;1273;68561;-76
2022/07/06 08:09:00;;;;;;;17.20;15.80;;;;;;;19.73;100.00;99229.90;104900;1273;72581;-77
2022/07/06 08:11:27;;;;;;;20.20;18.30;;;;;;;19.40;100.00;99234.02;104912;1273;61325;-77
2022/07/06 08:13:53;;;;;;;18.60;17.10;;;;;;;19.22;100.00;99234.97;104897;1273;61237;-76
2022/07/06 08:16:20;;;;;;;19.10;17.40;;;;;;;19.26;100.00;99239.98;104913;1273;61300;-76
2022/07/06 08:18:47;;;;;;;15.30;14.00;;;;;;;19.49;100.00;99238.80;104903;1273;69580;-76
2022/07/06 08:21:14;;;;;;;11.00;10.10;;;;;;;19.79;100.00;99242.40;104937;1273;61259;-78
2022/07/06 08:23:41;;;;;;;9.90;9.00;;;;;;;20.04;100.00;99240.27;104756;1273;61291;-76
2022/07/06 08:26:07;;;;;;;11.40;8.70;;;;;;;19.96;100.00;99248.59;104884;1273;61214;-77
2022/07/06 08:28:34;;;;;;;8.40;7.60;;;;;;;19.79;100.00;99254.53;104916;1273;76164;-76
2022/07/06 08:31:01;;;;;;;7.90;6.90;;;;;;;19.74;100.00;99257.49;104890;1273;68821;-77
2022/07/06 08:33:27;;;;;;;7.50;6.30;;;;;;;19.71;100.00;99258.20;104884;1273;73414;-77
2022/07/06 08:35:54;;;;;;;6.70;6.10;;;;;;;19.79;100.00;99260.08;104916;1273;61299;-75
2022/07/06 08:38:20;;;;;;;8.50;7.20;;;;;;;19.91;100.00;99260.98;104891;1273;61907;-76
2022/07/06 08:40:49;;;;;;;7.00;6.40;;;;;;;19.92;100.00;99257.15;104889;1272;61312;-77
2022/07/06 08:43:16;;;;;;;7.00;6.50;;;;;;;19.86;100.00;99262.44;104949;1273;69383;-77
2022/07/06 08:45:46;;;;;;;8.10;7.10;;;;;;;19.94;100.00;99262.34;104915;1273;73475;-77
2022/07/06 08:48:14;;;;;;;7.70;7.10;;;;;;;20.06;100.00;99259.83;104967;1273;61283;-77
2022/07/06 08:50:40;;;;;;;10.10;8.50;;;;;;;20.23;100.00;99260.34;104930;1273;61261;-77
2022/07/06 08:53:07;;;;;;;9.00;6.40;;;;;;;20.46;100.00;99259.39;104900;1273;76278;-77
2022/07/06 08:55:34;;;;;;;8.40;6.70;;;;;;;20.72;100.00;99255.73;104943;1273;61290;-77
2022/07/06 08:58:00;;;;;;;7.50;6.10;;;;;;;20.96;100.00;99253.10;104747;1273;73297;-76
2022/07/06 09:00:27;;;;;;;6.90;6.00;;;;;;;21.07;100.00;99251.75;104905;1273;61410;-77
2022/07/06 09:02:56;;;;;;;5.70;5.20;;;;;;;21.12;100.00;99249.58;104929;1273;61280;-76
2022/07/06 09:05:23;;;;;;;6.10;4.90;;;;;;;21.14;100.00;99244.80;104938;1273;76486;-76
2022/07/06 09:07:52;;;;;;;5.60;5.10;;;;;;;21.24;100.00;99236.30;104912;1273;69241;-76
2022/07/06 09:10:26;;;;;;;5.60;5.20;;;;;;;21.48;100.00;99230.31;104898;1273;73130;-77
2022/07/06 09:12:53;;;;;;;7.30;5.40;;;;;;;21.80;100.00;99231.70;104952;1273;61245;-78
2022/07/06 09:15:27;;;;;;;5.30;4.90;;;;;;;22.12;100.00;99225.27;104925;1273;61344;-77
2022/07/06 09:17:56;;;;;;;4.90;4.40;;;;;;;22.32;100.00;99226.81;104921;1273;76359;-78
2022/07/06 09:31:59;;;;;;;5.60;4.30;;;;;;;22.91;100.00;99201.20;101632;1310;614794;-77
2022/07/06 09:34:41;;;;;;;4.50;3.60;;;;;;;23.05;100.00;99202.91;104361;1284;59422;-76
2022/07/06 09:37:06;;;;;;;3.40;3.10;;;;;;;23.09;100.00;99199.44;104411;1284;61932;-77
2022/07/06 09:39:32;;;;;;;2.80;2.60;;;;;;;23.39;100.00;99199.48;104350;1284;59400;-75
2022/07/06 09:42:01;;;;;;;4.00;2.50;;;;;;;23.44;100.00;99200.80;104884;1277;59301;-76
2022/07/06 09:44:32;;;;;;;2.80;2.50;;;;;;;23.42;100.00;99200.72;104718;1274;324387;-76
2022/07/06 09:47:05;;;;;;;3.10;2.80;;;;;;;23.43;100.00;99203.04;104925;1274;59380;-76
2022/07/06 09:49:31;;;;;;;3.70;3.50;;;;;;;23.51;100.00;99202.71;104960;1273;61988;-78
2022/07/06 09:51:59;;;;;;;5.00;3.20;;;;;;;23.66;100.00;99198.73;105228;1271;59432;-79
2022/07/06 09:54:25;;;;;;;3.10;2.80;;;;;;;23.87;100.00;99195.27;105302;1268;69185;-77
2022/07/06 09:56:53;;;;;;;3.30;2.80;;;;;;;23.97;100.00;99197.15;105175;1271;59745;-77
2022/07/06 09:59:24;;;;;;;2.90;2.70;;;;;;;24.01;100.00;99203.30;105175;1271;60047;-76
2022/07/06 10:01:54;;;;;;;3.00;2.70;;;;;;;24.02;100.00;99205.40;105237;1269;60899;-76
2022/07/06 10:04:20;;;;;;;3.30;2.60;;;;;;;24.15;100.00;99199.55;105200;1268;74656;-76
2022/07/06 10:06:48;;;;;;;3.30;2.70;;;;;;;24.43;100.00;99199.44;105395;1269;59630;-78
2022/07/06 10:09:15;;;;;;;4.70;2.30;;;;;;;24.63;100.00;99203.10;105157;1271;73286;-77
2022/07/06 10:11:47;;;;;;;2.40;2.20;;;;;;;24.69;100.00;99204.95;105202;1269;59654;-77
2022/07/06 10:14:17;;;;;;;3.80;2.60;;;;;;;24.94;100.00;99200.78;105193;1268;61235;-77
2022/07/06 10:16:45;;;;;;;8.30;2.30;;;;;;;25.06;100.00;99201.23;105193;1268;73607;-77
2022/07/06 10:19:11;;;;;;;2.80;2.60;;;;;;;25.04;100.00;99205.61;105206;1271;68311;-77
2022/07/06 10:21:39;;;;;;;2.10;2.00;;;;;;;24.70;100.00;99209.41;105166;1268;59731;-76
2022/07/06 10:24:07;;;;;;;2.00;1.90;;;;;;;24.43;100.00;99213.02;105275;1268;59724;-78
2022/07/06 10:26:34;;;;;;;3.30;2.00;;;;;;;24.39;100.00;99212.06;105253;1268;60966;-78
2022/07/06 10:29:03;;;;;;;2.10;1.90;;;;;;;24.21;100.00;99214.26;105252;1268;74228;-76
2022/07/06 10:31:31;;;;;;;2.20;1.60;;;;;;;24.23;100.00;99211.20;105221;1269;69221;-76
2022/07/06 10:34:00;;;;;;;2.60;1.80;;;;;;;24.16;100.00;99206.61;105226;1268;73662;-77
2022/07/06 10:36:27;;;;;;;2.70;1.70;;;;;;;24.02;100.00;99207.55;105328;1269;60081;-75
2022/07/06 10:38:53;;;;;;;2.90;2.10;;;;;;;24.04;100.00;99204.02;105229;1271;62059;-76
2022/07/06 10:41:37;;;;;;;1.80;1.70;;;;;;;24.22;100.00;99201.70;105213;1268;73936;-75
2022/07/06 10:44:27;;;;;;;1.90;1.60;;;;;;;24.31;100.00;99204.66;105226;1271;70301;-77
2022/07/06 10:46:58;;;;;;;2.40;1.40;;;;;;;24.52;100.00;99201.73;105180;1271;73441;-77
2022/07/06 10:49:27;;;;;;;1.80;1.50;;;;;;;24.68;100.00;99200.73;105229;1271;59790;-77
2022/07/06 10:51:56;;;;;;;1.40;1.30;;;;;;;24.56;100.00;99201.44;105244;1271;62359;-75
2022/07/06 10:54:23;;;;;;;1.80;1.50;;;;;;;24.41;100.00;99200.36;104660;1272;72107;-77
2022/07/06 10:56:51;;;;;;;1.70;1.60;;;;;;;24.29;100.00;99201.06;105219;1271;69498;-78
2022/07/06 10:59:22;;;;;;;2.10;1.60;;;;;;;24.23;100.00;99199.05;105226;1271;72446;-77
2022/07/06 11:02:34;;;;;;;2.30;1.80;;;;;;;24.17;100.00;99203.77;105269;1271;59665;-77
2022/07/06 11:05:00;;;;;;;2.80;2.10;;;;;;;24.16;100.00;99201.16;104660;1277;60858;-77
2022/07/06 11:07:26;;;;;;;2.50;1.90;;;;;;;24.34;100.00;99202.65;104434;1278;59710;-77
2022/07/06 11:09:59;;;;;;;2.10;1.90;;;;;;;24.51;100.00;99203.86;104721;1277;59739;-76
2022/07/06 11:12:26;;;;;;;3.30;2.20;;;;;;;24.52;100.00;99201.52;104709;1277;73316;-77
2022/07/06 11:14:54;;;;;;;2.50;1.90;;;;;;;24.61;100.00;99201.40;104512;1277;59913;-77
2022/07/06 11:17:20;;;;;;;5.00;2.20;;;;;;;24.77;100.00;99203.63;104678;1277;61010;-77
2022/07/06 11:19:57;;;;;;;2.30;1.90;;;;;;;24.84;100.00;99203.59;104684;1277;59674;-76
2022/07/06 11:22:26;;;;;;;2.10;1.80;;;;;;;24.93;100.00;99202.50;104651;1277;69522;-76
2022/07/06 11:24:52;;;;;;;2.40;2.00;;;;;;;25.05;100.00;99201.39;104703;1277;74885;-77